Aviation Digital Data Service (ADDS)

Output produced by METARs form (2259 UTC 21 November 2017)
found at http://aviationweather.gov/adds/metars/
 
KBTR 211749Z 2118/2218 08004KT P6SM OVC050 
     FM220300 VRB03KT P6SM SCT020 OVC060 
     PROB30 2203/2206 4SM -SHRA BKN008 BKN010 
     FM221100 02006KT P6SM FEW030 SCT130